Nearby METAR Reports

 

EGTE - Exeter Airport, United Kingdom
Distance from station: S 19km
Updated: 22/02/2024 02:20
NOT Current
Partly cloudy
Partly cloudy
 Wind from S
Wind: S 15 km/h
Temperature: 10°C
Wind Chill: 8°C
Dew Point: 8°C
Humidity: 88%
Barometer: 994 hPa
Clouds: Partly cloudy
Visibility: 10 km
Cloud details: Partly cloudy 488 m
2024/02/22 02:20 EGTE 220220Z 17008KT 9999 SCT016 10/08 Q0994
EGDY - Yeovilton (navy), United Kingdom
Distance from station: ENE 55km
Updated: 22/02/2024 03:50
Overcast
Overcast
 Wind from SSW
Wind: SSW 28 km/h
Temperature: 10°C
Wind Chill: 7°C
Dew Point: 9°C
Humidity: 94%
Barometer: 991 hPa
Clouds: Overcast
Visibility: 10 km
Cloud details: Overcast 366 m
2024/02/22 03:50 EGDY 220350Z AUTO 20015KT 9999 OVC012/// 10/09 Q0991
 
EGFF - Cardiff-Wales Ar, United Kingdom
Distance from station: N 56km
Updated: 22/02/2024 03:50
Overcast
Overcast
 Wind from S
Wind: S 11 km/h
Temperature: 9°C
Wind Chill: 7°C
Dew Point: 8°C
Humidity: 94%
Barometer: 989 hPa
Clouds: Overcast
Visibility: 10 km
Cloud details: Mostly cloudy 549 m
Overcast 1311 m
2024/02/22 03:50 EGFF 220350Z AUTO 18006KT 160V220 9999 BKN018 OVC043 09/08 Q0989
EGDX - St Athan Raf, United Kingdom
Distance from station: N 58km
Updated: 01/04/2019 13:50
NOT Current
Clear
Clear
 Wind from E
Wind: E 15 km/h
Temperature: 11°C
Dew Point: 5°C
Humidity: 67%
Barometer: 1019 hPa
Clouds: Clear
Visibility: 10 km
2019/04/01 12:50 EGDX 011250Z AUTO 10008KT 9999 NCD 11/05 Q1019
 
EGGD - Bristol/Lulsgate, United Kingdom
Distance from station: NE 71km
Updated: 22/02/2024 03:50
Overcast
Overcast
 Wind from SSW
Wind: SSW 20 km/h
Temperature: 9°C
Wind Chill: 6°C
Dew Point: 7°C
Humidity: 87%
Barometer: 990 hPa
Clouds: Overcast
Visibility: 10 km
Cloud details: Mostly cloudy 274 m
Overcast 1128 m
2024/02/22 03:50 EGGD 220350Z AUTO 20011KT 170V230 9999 BKN009 OVC037 09/07 Q0990